createdAt,value
2022-10-23T00:00:53.343Z,95.10
2022-10-23T00:03:38.423Z,95.36
2022-10-23T00:06:11.485Z,95.48
2022-10-23T00:08:43.372Z,95.66
2022-10-23T00:11:17.984Z,95.77
2022-10-23T00:13:50.655Z,95.73
2022-10-23T00:16:22.451Z,95.88
2022-10-23T00:18:54.221Z,95.88
2022-10-23T00:21:26.794Z,95.60
2022-10-23T00:23:58.661Z,95.77
2022-10-23T00:26:30.426Z,95.79
2022-10-23T00:29:02.124Z,95.84
2022-10-23T00:31:33.846Z,95.52
2022-10-23T00:34:08.489Z,95.47
2022-10-23T00:36:40.889Z,95.30
2022-10-23T00:39:12.567Z,95.13
2022-10-23T00:41:44.239Z,94.97
2022-10-23T00:44:46.409Z,94.98
2022-10-23T00:47:18.930Z,94.75
2022-10-23T00:49:51.135Z,94.82
2022-10-23T00:52:22.810Z,94.65
2022-10-23T00:54:54.571Z,94.49
2022-10-23T00:57:26.375Z,94.43
2022-10-23T00:59:58.062Z,94.43
2022-10-23T01:02:29.834Z,94.09
2022-10-23T01:05:01.660Z,94.21
2022-10-23T01:07:40.883Z,94.22
2022-10-23T01:10:21.902Z,94.08
2022-10-23T01:13:01.834Z,94.04
2022-10-23T01:15:38.703Z,93.94
2022-10-23T01:18:18.324Z,94.07
2022-10-23T01:21:00.687Z,93.89
2022-10-23T01:24:01.909Z,93.89
2022-10-23T01:26:45.367Z,93.89
2022-10-23T01:29:26.763Z,93.76
2022-10-23T01:32:04.193Z,93.63
2022-10-23T01:34:48.822Z,93.76
2022-10-23T01:37:30.677Z,93.78
2022-10-23T01:40:18.906Z,93.93
2022-10-23T01:42:56.078Z,94.02
2022-10-23T01:45:37.717Z,93.98
2022-10-23T01:48:13.748Z,93.98
2022-10-23T01:50:47.663Z,93.94
2022-10-23T01:53:20.493Z,93.97
2022-10-23T01:55:55.801Z,93.89
2022-10-23T01:58:32.557Z,93.71
2022-10-23T02:01:07.631Z,93.85
2022-10-23T02:03:45.094Z,93.88
2022-10-23T02:06:17.060Z,93.87
2022-10-23T02:08:49.513Z,93.68
2022-10-23T02:11:22.998Z,93.75
2022-10-23T02:14:00.904Z,93.75
2022-10-23T02:16:37.179Z,93.70
2022-10-23T02:19:18.916Z,93.59
2022-10-23T02:21:57.993Z,93.46
2022-10-23T02:24:36.814Z,93.53
2022-10-23T02:27:16.048Z,93.57
2022-10-23T02:29:51.228Z,93.61
2022-10-23T02:32:27.827Z,93.69
2022-10-23T02:34:59.539Z,93.62
2022-10-23T02:37:31.326Z,93.69
2022-10-23T02:40:05.031Z,93.48
2022-10-23T02:42:50.878Z,93.49
2022-10-23T02:45:30.833Z,93.52
2022-10-23T02:48:11.383Z,93.57
2022-10-23T02:50:50.347Z,93.79
2022-10-23T02:53:31.254Z,93.58
2022-10-23T02:56:10.838Z,93.54
2022-10-23T02:58:49.663Z,93.53
2022-10-23T03:01:27.618Z,93.46
2022-10-23T03:04:02.114Z,93.35
2022-10-23T03:06:35.723Z,93.36
2022-10-23T03:09:09.499Z,93.26
2022-10-23T03:11:41.217Z,93.33
2022-10-23T03:14:14.651Z,93.22
2022-10-23T03:16:46.351Z,93.19
2022-10-23T03:19:18.399Z,93.56
2022-10-23T03:21:50.625Z,93.60
2022-10-23T03:24:22.626Z,93.86
2022-10-23T03:26:54.507Z,94.03
2022-10-23T03:29:33.437Z,93.76
2022-10-23T03:32:05.747Z,94.11
2022-10-23T03:34:37.528Z,93.92
2022-10-23T03:37:09.651Z,94.11
2022-10-23T03:39:41.533Z,93.85
2022-10-23T03:42:13.271Z,93.94
2022-10-23T03:44:45.080Z,93.90
2022-10-23T03:47:16.841Z,93.75
2022-10-23T03:49:48.520Z,93.47
2022-10-23T03:52:20.762Z,93.54
2022-10-23T03:54:55.592Z,93.52
2022-10-23T03:57:27.378Z,93.39
2022-10-23T03:59:59.104Z,93.26
2022-10-23T04:02:34.280Z,93.40
2022-10-23T04:05:06.745Z,93.39
2022-10-23T04:07:39.285Z,93.41
2022-10-23T04:10:12.175Z,93.21
2022-10-23T04:12:44.492Z,93.26
2022-10-23T04:15:17.247Z,93.24
2022-10-23T04:17:50.855Z,93.30
2022-10-23T04:20:24.283Z,93.35
2022-10-23T04:22:55.927Z,93.46
2022-10-23T04:25:27.957Z,93.40
2022-10-23T04:27:59.639Z,93.47
2022-10-23T04:30:31.473Z,93.50
2022-10-23T04:33:03.171Z,93.57
2022-10-23T04:35:34.849Z,93.60
2022-10-23T04:38:06.534Z,93.52
2022-10-23T04:40:38.340Z,93.51
2022-10-23T04:43:10.133Z,93.52
2022-10-23T04:45:43.824Z,93.49
2022-10-23T04:48:15.816Z,93.43
2022-10-23T04:51:08.662Z,93.30
2022-10-23T04:53:55.538Z,93.22
2022-10-23T04:56:34.838Z,93.08
2022-10-23T04:59:11.021Z,92.90
2022-10-23T05:01:44.350Z,92.81
2022-10-23T05:04:16.061Z,92.75
2022-10-23T05:10:07.164Z,92.62
2022-10-23T05:12:53.182Z,92.60
2022-10-23T05:15:27.020Z,92.34
2022-10-23T05:18:04.952Z,92.42
2022-10-23T05:20:39.050Z,92.25
2022-10-23T05:23:15.832Z,92.03
2022-10-23T05:25:56.523Z,91.69
2022-10-23T05:28:28.210Z,91.56
2022-10-23T05:31:01.996Z,91.49
2022-10-23T05:33:35.978Z,91.35
2022-10-23T05:36:09.562Z,91.05
2022-10-23T05:38:41.702Z,90.75
2022-10-23T05:41:20.310Z,90.66
2022-10-23T05:43:52.515Z,90.33
2022-10-23T05:46:44.485Z,90.03
2022-10-23T05:49:26.610Z,90.07
2022-10-23T05:52:16.932Z,89.78
2022-10-23T05:55:10.117Z,89.73
2022-10-23T05:57:55.595Z,89.54
2022-10-23T06:00:44.844Z,89.37
2022-10-23T06:03:34.543Z,89.34
2022-10-23T06:06:10.816Z,89.42
2022-10-23T06:08:49.952Z,88.68
2022-10-23T06:11:22.925Z,88.21
2022-10-23T06:14:01.804Z,87.85
2022-10-23T06:16:33.800Z,87.74
2022-10-23T06:19:06.172Z,87.37
2022-10-23T06:21:41.119Z,87.10
2022-10-23T06:24:13.841Z,87.30
2022-10-23T06:26:59.890Z,86.85
2022-10-23T06:29:52.036Z,86.83
2022-10-23T06:32:24.685Z,86.55
2022-10-23T06:35:08.120Z,86.49
2022-10-23T06:37:40.037Z,86.51
2022-10-23T06:40:18.028Z,86.35
2022-10-23T06:43:04.765Z,86.30
2022-10-23T06:45:46.566Z,86.11
2022-10-23T06:48:18.908Z,86.06
2022-10-23T06:51:18.278Z,85.64
2022-10-23T06:53:50.371Z,85.82
2022-10-23T06:56:51.457Z,85.06
2022-10-23T06:59:26.908Z,85.25
2022-10-23T07:01:58.754Z,85.26
2022-10-23T07:04:31.054Z,85.09
2022-10-23T07:07:02.941Z,85.18
2022-10-23T07:09:42.111Z,85.39
2022-10-23T07:12:19.973Z,85.34
2022-10-23T07:14:55.965Z,85.28
2022-10-23T07:17:29.403Z,85.51
2022-10-23T07:20:01.054Z,85.20
2022-10-23T07:22:33.298Z,84.92
2022-10-23T07:25:18.213Z,84.22
2022-10-23T07:27:50.418Z,84.31
2022-10-23T07:30:24.363Z,84.21
2022-10-23T07:32:58.830Z,83.96
2022-10-23T07:35:46.417Z,83.91
2022-10-23T07:38:24.022Z,83.74
2022-10-23T07:41:00.240Z,83.07
2022-10-23T07:46:10.474Z,83.37
2022-10-23T07:48:44.148Z,82.68
2022-10-23T07:51:17.464Z,82.48
2022-10-23T07:53:51.085Z,82.63
2022-10-23T07:56:43.236Z,82.92
2022-10-23T07:59:19.473Z,82.19
2022-10-23T08:01:56.758Z,82.34
2022-10-23T08:04:36.022Z,80.96
2022-10-23T08:07:15.269Z,80.87
2022-10-23T08:09:48.118Z,80.78
2022-10-23T08:12:19.943Z,80.00
2022-10-23T08:14:52.278Z,79.57
2022-10-23T08:17:26.329Z,79.44
2022-10-23T08:20:21.351Z,79.60
2022-10-23T08:22:53.816Z,78.08
2022-10-23T08:25:28.511Z,77.67
2022-10-23T08:28:04.184Z,78.07
2022-10-23T08:30:40.126Z,77.85
2022-10-23T08:33:12.041Z,77.59
2022-10-23T08:35:44.025Z,78.17
2022-10-23T08:38:16.322Z,77.84
2022-10-23T08:40:50.529Z,77.44
2022-10-23T08:43:52.026Z,77.19
2022-10-23T08:46:39.489Z,76.11
2022-10-23T08:49:41.515Z,76.06
2022-10-23T08:52:21.595Z,75.94
2022-10-23T08:55:03.465Z,75.83
2022-10-23T08:57:43.919Z,75.44
2022-10-23T09:00:18.714Z,74.62
2022-10-23T09:02:53.485Z,74.36
2022-10-23T09:05:32.367Z,74.03
2022-10-23T09:08:23.256Z,74.00
2022-10-23T09:11:03.334Z,74.21
2022-10-23T09:13:56.635Z,74.08
2022-10-23T09:16:41.740Z,74.27
2022-10-23T09:19:16.595Z,74.24
2022-10-23T09:21:51.008Z,73.60
2022-10-23T09:24:25.373Z,72.96
2022-10-23T09:26:57.238Z,71.91
2022-10-23T09:29:32.116Z,71.66
2022-10-23T09:32:07.123Z,71.57
2022-10-23T09:34:39.620Z,71.95
2022-10-23T09:37:26.408Z,72.90
2022-10-23T09:40:19.220Z,72.98
2022-10-23T09:42:57.136Z,71.83
2022-10-23T09:45:32.445Z,71.35
2022-10-23T09:48:14.934Z,70.38
2022-10-23T09:50:51.230Z,70.42
2022-10-23T09:53:31.925Z,70.07
2022-10-23T09:56:07.946Z,70.07
2022-10-23T09:58:44.550Z,70.74
2022-10-23T10:01:27.623Z,70.13
2022-10-23T10:04:03.880Z,69.63
2022-10-23T10:06:36.442Z,69.37
2022-10-23T10:09:13.241Z,69.46
2022-10-23T10:11:50.498Z,69.75
2022-10-23T10:14:45.061Z,69.65
2022-10-23T10:17:29.030Z,70.02
2022-10-23T10:20:16.367Z,70.09
2022-10-23T10:22:54.661Z,69.94
2022-10-23T10:25:33.406Z,69.41
2022-10-23T10:28:24.749Z,68.48
2022-10-23T10:31:07.356Z,67.82
2022-10-23T10:33:49.023Z,67.66
2022-10-23T10:36:40.255Z,66.98
2022-10-23T10:39:22.849Z,67.46
2022-10-23T10:42:08.236Z,67.01
2022-10-23T10:44:54.580Z,65.38
2022-10-23T10:47:33.825Z,65.95
2022-10-23T10:50:16.925Z,66.32
2022-10-23T10:53:08.684Z,66.14
2022-10-23T10:55:44.024Z,64.99
2022-10-23T10:58:21.492Z,63.20
2022-10-23T11:00:57.105Z,62.42
2022-10-23T11:03:40.072Z,62.67
2022-10-23T11:06:17.493Z,63.91
2022-10-23T11:08:57.222Z,64.63
2022-10-23T11:11:36.024Z,64.60
2022-10-23T11:14:09.485Z,63.99
2022-10-23T11:16:46.532Z,63.29
2022-10-23T11:19:25.716Z,62.54
2022-10-23T11:22:03.854Z,63.12
2022-10-23T11:24:52.433Z,63.53
2022-10-23T11:27:38.713Z,64.18
2022-10-23T11:30:24.178Z,64.18
2022-10-23T11:33:15.903Z,64.46
2022-10-23T11:35:55.903Z,64.82
2022-10-23T11:38:31.060Z,65.23
2022-10-23T11:41:06.510Z,65.33
2022-10-23T11:43:51.311Z,65.92
2022-10-23T11:46:40.065Z,65.76
2022-10-23T11:49:24.214Z,65.33
2022-10-23T11:52:05.115Z,65.72
2022-10-23T11:54:37.263Z,65.62
2022-10-23T11:57:14.796Z,65.67
2022-10-23T11:59:56.068Z,65.68
2022-10-23T12:02:36.890Z,65.88
2022-10-23T12:05:26.469Z,66.01
2022-10-23T12:08:01.078Z,65.92
2022-10-23T12:10:35.510Z,65.30
2022-10-23T12:13:22.128Z,65.36
2022-10-23T12:16:00.106Z,65.24
2022-10-23T12:18:33.172Z,65.14
2022-10-23T12:21:06.368Z,65.13
2022-10-23T12:23:48.462Z,64.68
2022-10-23T12:26:45.855Z,64.82
2022-10-23T12:29:29.051Z,64.76
2022-10-23T12:32:10.016Z,65.20
2022-10-23T12:34:54.553Z,64.86
2022-10-23T12:38:08.585Z,65.52
2022-10-23T12:40:40.886Z,65.54
2022-10-23T12:43:27.198Z,65.90
2022-10-23T12:46:04.119Z,65.61
2022-10-23T12:48:36.373Z,64.86
2022-10-23T12:51:08.406Z,64.98
2022-10-23T12:53:40.359Z,65.20
2022-10-23T12:56:17.075Z,64.91
2022-10-23T12:58:53.206Z,64.54
2022-10-23T13:01:30.498Z,64.39
2022-10-23T13:04:13.203Z,63.84
2022-10-23T13:06:45.630Z,63.78
2022-10-23T13:09:24.496Z,63.79
2022-10-23T13:12:28.550Z,63.34
2022-10-23T13:15:04.131Z,63.49
2022-10-23T13:17:41.968Z,63.10
2022-10-23T13:20:23.782Z,63.09
2022-10-23T13:23:01.289Z,62.87
2022-10-23T13:25:33.203Z,62.97
2022-10-23T13:28:25.110Z,63.24
2022-10-23T13:31:07.389Z,63.20
2022-10-23T13:33:41.567Z,63.09
2022-10-23T13:36:27.489Z,63.39
2022-10-23T13:39:13.955Z,63.70
2022-10-23T13:41:47.735Z,63.80
2022-10-23T13:44:24.234Z,63.95
2022-10-23T13:46:57.185Z,63.55
2022-10-23T13:49:28.899Z,64.00
2022-10-23T13:52:00.656Z,64.14
2022-10-23T13:54:32.358Z,64.17
2022-10-23T13:57:04.252Z,64.26
2022-10-23T13:59:36.163Z,63.74
2022-10-23T14:02:19.986Z,63.50
2022-10-23T14:04:52.727Z,63.76
2022-10-23T14:07:24.432Z,63.86
2022-10-23T14:09:56.116Z,63.94
2022-10-23T14:12:27.892Z,64.38
2022-10-23T14:14:59.590Z,64.51
2022-10-23T14:17:31.306Z,64.56
2022-10-23T14:20:05.868Z,64.65
2022-10-23T14:22:38.300Z,65.04
2022-10-23T14:25:10.837Z,64.73
2022-10-23T14:27:42.638Z,65.25
2022-10-23T14:30:15.448Z,65.17
2022-10-23T14:32:47.571Z,65.47
2022-10-23T14:35:20.836Z,65.92
2022-10-23T14:37:52.530Z,66.33
2022-10-23T14:40:24.412Z,66.42
2022-10-23T14:42:56.094Z,67.16
2022-10-23T14:45:29.866Z,67.69
2022-10-23T14:48:02.638Z,68.07
2022-10-23T14:50:43.188Z,68.35
2022-10-23T14:53:15.642Z,68.75
2022-10-23T14:55:47.304Z,69.10
2022-10-23T14:58:18.990Z,69.33
2022-10-23T15:01:00.152Z,69.86
2022-10-23T15:03:32.854Z,70.31
2022-10-23T15:06:04.889Z,70.88
2022-10-23T15:08:37.027Z,71.23
2022-10-23T15:11:12.534Z,71.45
2022-10-23T15:13:44.741Z,71.73
2022-10-23T15:16:16.655Z,71.93
2022-10-23T15:18:48.308Z,72.30
2022-10-23T15:21:20.166Z,72.64
2022-10-23T15:23:53.286Z,72.72
2022-10-23T15:26:25.664Z,73.07
2022-10-23T15:28:59.241Z,73.34
2022-10-23T15:31:49.292Z,73.78
2022-10-23T15:34:23.514Z,74.13
2022-10-23T15:36:58.623Z,74.68
2022-10-23T15:39:33.897Z,74.96
2022-10-23T15:42:07.179Z,75.11
2022-10-23T15:44:40.631Z,75.51
2022-10-23T15:47:12.308Z,75.55
2022-10-23T15:49:44.799Z,75.69
2022-10-23T15:52:16.491Z,75.89
2022-10-23T15:54:48.311Z,76.17
2022-10-23T15:57:20.469Z,76.19
2022-10-23T15:59:52.263Z,76.41
2022-10-23T16:02:24.262Z,76.64
2022-10-23T16:04:56.056Z,76.85
2022-10-23T16:07:27.785Z,77.00
2022-10-23T16:09:59.886Z,77.40
2022-10-23T16:12:32.276Z,77.76
2022-10-23T16:15:04.015Z,77.94
2022-10-23T16:17:35.780Z,78.46
2022-10-23T16:20:09.209Z,78.81
2022-10-23T16:22:44.156Z,79.15
2022-10-23T16:25:16.905Z,79.93
2022-10-23T16:27:48.908Z,80.18
2022-10-23T16:30:22.900Z,80.31
2022-10-23T16:32:54.975Z,80.65
2022-10-23T16:35:26.965Z,80.58
2022-10-23T16:38:06.133Z,80.58
2022-10-23T16:40:37.833Z,80.31
2022-10-23T16:43:28.621Z,79.91
2022-10-23T16:46:13.110Z,79.69
2022-10-23T16:48:45.660Z,79.59
2022-10-23T16:51:20.260Z,79.25
2022-10-23T16:53:52.824Z,79.17
2022-10-23T16:56:27.934Z,79.08
2022-10-23T16:59:00.417Z,78.85
2022-10-23T17:01:34.115Z,78.88
2022-10-23T17:04:08.802Z,78.72
2022-10-23T17:06:41.307Z,78.65
2022-10-23T17:09:13.186Z,78.62
2022-10-23T17:11:48.011Z,78.53
2022-10-23T17:14:25.037Z,78.48
2022-10-23T17:16:58.236Z,78.61
2022-10-23T17:19:44.718Z,78.71
2022-10-23T17:22:17.784Z,78.76
2022-10-23T17:24:51.624Z,78.86
2022-10-23T17:27:25.697Z,78.74
2022-10-23T17:29:58.341Z,78.71
2022-10-23T17:32:30.134Z,78.96
2022-10-23T17:35:01.806Z,78.84
2022-10-23T17:37:33.576Z,78.90
2022-10-23T17:40:07.056Z,79.10
2022-10-23T17:42:39.205Z,79.14
2022-10-23T17:45:12.199Z,79.38
2022-10-23T17:47:44.737Z,79.41
2022-10-23T17:50:16.505Z,79.42
2022-10-23T17:52:48.864Z,79.48
2022-10-23T17:55:21.373Z,79.61
2022-10-23T17:57:53.187Z,79.81
2022-10-23T18:00:25.210Z,79.93
2022-10-23T18:02:57.139Z,80.08
2022-10-23T18:05:28.952Z,80.22
2022-10-23T18:08:01.017Z,80.62
2022-10-23T18:10:35.994Z,80.85
2022-10-23T18:13:07.710Z,81.03
2022-10-23T18:15:39.770Z,81.37
2022-10-23T18:18:13.977Z,81.74
2022-10-23T18:20:47.802Z,82.04
2022-10-23T18:23:20.201Z,82.61
2022-10-23T18:25:51.905Z,82.74
2022-10-23T18:28:23.754Z,83.30
2022-10-23T18:30:56.970Z,83.47
2022-10-23T18:33:29.220Z,83.68
2022-10-23T18:36:01.165Z,83.77
2022-10-23T18:38:32.922Z,83.93
2022-10-23T18:41:04.641Z,84.13
2022-10-23T18:43:43.740Z,84.19
2022-10-23T18:46:16.607Z,84.47
2022-10-23T18:48:50.730Z,84.34
2022-10-23T18:51:25.021Z,84.34
2022-10-23T18:53:57.656Z,84.55
2022-10-23T18:56:30.193Z,84.45
2022-10-23T18:59:04.058Z,84.43
2022-10-23T19:01:36.602Z,84.32
2022-10-23T19:04:11.701Z,84.37
2022-10-23T19:06:43.958Z,84.41
2022-10-23T19:09:17.237Z,84.46
2022-10-23T19:11:49.045Z,84.30
2022-10-23T19:14:20.836Z,84.37
2022-10-23T19:17:01.775Z,84.34
2022-10-23T19:19:37.286Z,84.22
2022-10-23T19:22:12.154Z,84.47
2022-10-23T19:24:50.168Z,84.40
2022-10-23T19:27:22.074Z,84.55
2022-10-23T19:29:55.637Z,84.64
2022-10-23T19:32:27.545Z,84.58
2022-10-23T19:35:01.259Z,84.66
2022-10-23T19:37:33.224Z,84.65
2022-10-23T19:40:06.727Z,84.65
2022-10-23T19:42:40.045Z,84.73
2022-10-23T19:45:15.950Z,84.87
2022-10-23T19:47:47.986Z,85.01
2022-10-23T19:50:20.883Z,84.91
2022-10-23T19:52:52.685Z,84.87
2022-10-23T19:55:24.416Z,84.92
2022-10-23T19:57:56.505Z,85.00
2022-10-23T20:00:29.036Z,85.11
2022-10-23T20:03:00.696Z,85.03
2022-10-23T20:05:32.674Z,85.21
2022-10-23T20:08:04.409Z,85.22
2022-10-23T20:10:41.320Z,85.16
2022-10-23T20:13:19.714Z,85.26
2022-10-23T20:15:52.059Z,85.28
2022-10-23T20:18:23.902Z,85.15
2022-10-23T20:20:55.906Z,85.33
2022-10-23T20:23:28.308Z,85.28
2022-10-23T20:26:08.532Z,85.37
2022-10-23T20:28:40.560Z,85.50
2022-10-23T20:31:13.081Z,85.69
2022-10-23T20:33:45.080Z,85.73
2022-10-23T20:36:29.950Z,85.81
2022-10-23T20:39:05.745Z,85.77
2022-10-23T20:41:37.977Z,85.81
2022-10-23T20:44:12.445Z,85.91
2022-10-23T20:46:44.628Z,85.80
2022-10-23T20:49:16.673Z,85.87
2022-10-23T20:51:54.841Z,85.77
2022-10-23T20:54:28.956Z,85.68
2022-10-23T20:57:00.939Z,85.81
2022-10-23T20:59:34.152Z,85.74
2022-10-23T21:02:06.083Z,85.74
2022-10-23T21:04:37.919Z,85.78
2022-10-23T21:07:12.155Z,85.85
2022-10-23T21:09:43.898Z,85.95
2022-10-23T21:12:15.661Z,85.97
2022-10-23T21:14:47.351Z,85.92
2022-10-23T21:17:19.069Z,86.07
2022-10-23T21:19:51.144Z,85.91
2022-10-23T21:22:22.825Z,86.09
2022-10-23T21:24:56.205Z,86.07
2022-10-23T21:27:28.211Z,86.07
2022-10-23T21:29:59.894Z,86.15
2022-10-23T21:32:31.600Z,86.10
2022-10-23T21:35:03.448Z,86.14
2022-10-23T21:37:35.185Z,86.36
2022-10-23T21:40:08.563Z,86.34
2022-10-23T21:42:40.283Z,86.26
2022-10-23T21:45:12.749Z,86.22
2022-10-23T21:47:44.535Z,86.22
2022-10-23T21:50:16.643Z,86.46
2022-10-23T21:52:53.144Z,86.40
2022-10-23T21:55:28.100Z,86.44
2022-10-23T21:57:59.763Z,86.46
2022-10-23T22:00:31.841Z,86.27
2022-10-23T22:03:03.568Z,86.37
2022-10-23T22:05:35.234Z,86.40
2022-10-23T22:08:07.547Z,86.45
2022-10-23T22:10:39.310Z,86.35
2022-10-23T22:13:10.986Z,86.50
2022-10-23T22:18:19.753Z,86.60
2022-10-23T22:20:51.421Z,86.68
2022-10-23T22:23:23.087Z,86.69
2022-10-23T22:25:54.762Z,86.96
2022-10-23T22:28:26.792Z,87.08
2022-10-23T22:30:58.605Z,86.86
2022-10-23T22:33:31.952Z,87.05
2022-10-23T22:36:04.923Z,87.22
2022-10-23T22:38:36.912Z,87.22
2022-10-23T22:41:09.645Z,87.30
2022-10-23T22:43:41.620Z,87.27
2022-10-23T22:46:15.040Z,87.31
2022-10-23T22:48:47.589Z,87.45
2022-10-23T22:51:21.420Z,87.64
2022-10-23T22:53:53.130Z,87.62
2022-10-23T22:56:26.823Z,87.42
2022-10-23T22:58:59.144Z,87.53
2022-10-23T23:01:34.336Z,87.69
2022-10-23T23:04:19.865Z,87.56
2022-10-23T23:06:57.943Z,87.39
2022-10-23T23:09:29.640Z,87.14
2022-10-23T23:12:01.260Z,86.82
2022-10-23T23:14:32.993Z,86.88
2022-10-23T23:17:06.200Z,86.85
2022-10-23T23:19:37.961Z,87.03
2022-10-23T23:22:09.734Z,86.81
2022-10-23T23:24:41.411Z,86.98
2022-10-23T23:27:13.080Z,86.81
2022-10-23T23:29:44.724Z,86.69
2022-10-23T23:32:16.400Z,86.75
2022-10-23T23:34:48.045Z,86.78
2022-10-23T23:37:19.734Z,86.67
2022-10-23T23:39:51.390Z,86.45
2022-10-23T23:42:23.054Z,86.42
2022-10-23T23:45:10.016Z,86.83
2022-10-23T23:47:45.341Z,87.00
2022-10-23T23:50:17.928Z,87.07
2022-10-23T23:52:49.756Z,87.28
2022-10-23T23:55:21.429Z,87.47
2022-10-23T23:57:53.182Z,87.38
